ΕΜΥ, Εθνική Μετεωρολογική Υπηρεσία - Δελτία Καιρού, Προγνώσεις

ΑΕΡΟΝΑΥΤΙΛΙΑ

GREEK AIRPORTS CODES

LGTS 181120Z 30006KT 9999 FEW012 SCT025 15/11 Q1013 NOSIG=

EUROPEAN AIRPORTS CODES

LCLK 181130Z 10005KT 070V130 CAVOK 29/10 Q1015 NOSIG=